Time;durP1;ratioP1;P1;durP2;ratioP2;P2;SDS_P1;SDS_P2;PMS_P1;PMS_P2;Temp;Humidity;BMP_temperature;BMP_pressure;BME280_temperature;BME280_humidity;BME280_pressure;Samples;Min_cycle;Max_cycle;Signal;HPM_P1;HPM_P2
2022/06/16 00:02:21;;;;;;;;;;;;;;;18.36;32.62;95617.19;5065221;28;20400;-80
2022/06/16 00:04:47;;;;;;;;;;;;;;;18.27;32.54;95608.63;5027383;28;20311;-79
2022/06/16 00:07:13;;;;;;;;;;;;;;;18.27;32.55;95605.09;5071362;28;19944;-80
2022/06/16 00:09:39;;;;;;;;;;;;;;;18.18;32.32;95607.28;5030429;28;20181;-80
2022/06/16 00:12:04;;;;;;;;;;;;;;;18.01;32.78;95605.22;5046916;28;20471;-79
2022/06/16 00:14:30;;;;;;;;;;;;;;;18.11;32.27;95603.84;5045800;28;20425;-79
2022/06/16 00:16:55;;;;;;;;;;;;;;;18.07;32.34;95597.28;5047162;28;19977;-79
2022/06/16 00:19:20;;;;;;;;;;;;;;;18.08;32.32;95602.44;5047530;28;20059;-80
2022/06/16 00:21:46;;;;;;;;;;;;;;;18.07;32.24;95606.19;5047326;28;20109;-79
2022/06/16 00:24:11;;;;;;;;;;;;;;;17.77;32.83;95605.06;5049170;28;20018;-79
2022/06/16 00:26:36;;;;;;;;;;;;;;;17.89;32.61;95598.94;5066618;28;20015;-79
2022/06/16 00:29:01;;;;;;;;;;;;;;;17.95;32.29;95602.63;5047364;28;19962;-80
2022/06/16 00:31:27;;;;;;;;;;;;;;;17.92;32.10;95593.13;5028482;28;20363;-79
2022/06/16 00:33:52;;;;;;;;;;;;;;;17.83;32.44;95599.81;5061436;28;20409;-80
2022/06/16 00:36:17;;;;;;;;;;;;;;;17.86;32.47;95607.47;5045817;28;19991;-79
2022/06/16 00:38:42;;;;;;;;;;;;;;;17.87;31.95;95611.81;5063567;28;20368;-80
2022/06/16 00:41:08;;;;;;;;;;;;;;;17.50;32.93;95613.41;5063298;28;19963;-77
2022/06/16 00:43:33;;;;;;;;;;;;;;;17.72;32.57;95612.16;5044933;28;19978;-77
2022/06/16 00:46:00;;;;;;;;;;;;;;;17.89;32.12;95601.66;5062688;28;20023;-78
2022/06/16 00:48:44;;;;;;;;;;;;;;;18.00;31.81;95605.44;5044663;28;20004;-77
2022/06/16 00:51:11;;;;;;;;;;;;;;;18.06;32.20;95609.94;5063003;28;19940;-77
2022/06/16 00:53:37;;;;;;;;;;;;;;;18.10;31.84;95603.03;5044789;28;19965;-74
2022/06/16 00:56:02;;;;;;;;;;;;;;;18.15;31.40;95599.69;5045209;28;19992;-77
2022/06/16 00:58:28;;;;;;;;;;;;;;;18.15;31.41;95607.75;5044820;28;20052;-77
2022/06/16 01:00:53;;;;;;;;;;;;;;;18.07;31.91;95611.56;5044243;28;19983;-77
2022/06/16 01:04:51;;;;;;;;;;;;;;;18.00;31.95;95613.53;5078452;28;20141;-77
2022/06/16 01:06:30;;;;;;;;;;;;;;;18.02;31.28;95606.84;5047207;28;19979;-77
2022/06/16 01:09:02;;;;;;;;;;;;;;;18.08;31.09;95609.72;5059419;28;19970;-77
2022/06/16 01:14:38;;;;;;;;;;;;;;;18.12;31.17;95609.00;5062350;28;20135;-78
2022/06/16 01:17:11;;;;;;;;;;;;;;;18.12;31.52;95608.22;5044342;28;20011;-78
2022/06/16 01:19:49;;;;;;;;;;;;;;;18.12;31.66;95608.22;5044315;28;20265;-78
2022/06/16 01:22:19;;;;;;;;;;;;;;;18.06;31.79;95612.63;5061260;28;20050;-77
2022/06/16 01:24:59;;;;;;;;;;;;;;;17.99;32.10;95612.72;5077683;28;19964;-77
2022/06/16 01:27:27;;;;;;;;;;;;;;;17.92;31.74;95622.75;5044387;28;20151;-78
2022/06/16 01:30:09;;;;;;;;;;;;;;;17.91;31.83;95613.84;5043828;28;20533;-78
2022/06/16 01:32:51;;;;;;;;;;;;;;;17.94;31.69;95619.84;5077402;28;20459;-78
2022/06/16 01:35:36;;;;;;;;;;;;;;;17.89;32.05;95612.41;5044254;28;19961;-78
2022/06/16 01:38:20;;;;;;;;;;;;;;;17.83;32.37;95613.28;5027237;28;19976;-78
2022/06/16 01:41:04;;;;;;;;;;;;;;;17.86;31.59;95613.69;5061635;28;19981;-78
2022/06/16 01:43:33;;;;;;;;;;;;;;;17.90;31.99;95614.88;5062043;28;20312;-78
2022/06/16 01:46:07;;;;;;;;;;;;;;;17.80;32.43;95619.94;5061771;28;19996;-78
2022/06/16 01:48:32;;;;;;;;;;;;;;;17.76;32.29;95613.34;5043814;28;20050;-78
2022/06/16 01:51:03;;;;;;;;;;;;;;;17.76;32.09;95616.88;5062277;28;20384;-77
2022/06/16 01:53:32;;;;;;;;;;;;;;;17.75;31.85;95617.09;5027033;28;20056;-78
2022/06/16 01:56:01;;;;;;;;;;;;;;;17.64;31.98;95621.38;5027252;28;20131;-80
2022/06/16 01:58:27;;;;;;;;;;;;;;;17.68;31.63;95622.56;5043500;28;19971;-79
2022/06/16 02:00:53;;;;;;;;;;;;;;;17.61;31.81;95622.63;5061509;28;19974;-79
2022/06/16 02:03:29;;;;;;;;;;;;;;;17.57;32.04;95626.00;5044220;28;19956;-80
2022/06/16 02:05:55;;;;;;;;;;;;;;;17.59;31.62;95627.41;5027400;28;20072;-81
2022/06/16 02:08:31;;;;;;;;;;;;;;;17.65;31.53;95623.81;5044514;28;19951;-79
2022/06/16 02:10:57;;;;;;;;;;;;;;;17.60;31.86;95629.03;5045001;28;20030;-80
2022/06/16 02:13:24;;;;;;;;;;;;;;;17.50;31.53;95632.25;5045269;28;19959;-81
2022/06/16 02:15:53;;;;;;;;;;;;;;;17.57;31.50;95621.41;5079214;28;20126;-79
2022/06/16 02:18:19;;;;;;;;;;;;;;;17.61;32.09;95616.44;5045559;28;20017;-80
2022/06/16 02:20:52;;;;;;;;;;;;;;;17.67;31.27;95620.91;5028696;28;20456;-80
2022/06/16 02:23:18;;;;;;;;;;;;;;;17.55;32.11;95610.06;5045415;28;19956;-80
2022/06/16 02:25:44;;;;;;;;;;;;;;;17.13;32.49;95624.09;5078473;28;20563;-79
2022/06/16 02:28:12;;;;;;;;;;;;;;;17.01;33.03;95616.72;5028791;28;19952;-78
2022/06/16 02:30:38;;;;;;;;;;;;;;;17.14;33.12;95618.50;5058663;28;20065;-80
2022/06/16 02:33:06;;;;;;;;;;;;;;;16.98;32.83;95622.53;5035071;28;19995;-80
2022/06/16 02:35:42;;;;;;;;;;;;;;;17.02;33.09;95623.75;5044445;28;19966;-80
2022/06/16 02:38:07;;;;;;;;;;;;;;;17.10;32.58;95629.91;5047930;28;20396;-80
2022/06/16 02:40:36;;;;;;;;;;;;;;;16.73;33.66;95631.38;5066992;28;20165;-79
2022/06/16 02:43:07;;;;;;;;;;;;;;;16.28;34.50;95631.44;5066713;28;20054;-79
2022/06/16 02:45:32;;;;;;;;;;;;;;;16.36;35.18;95633.91;5047833;28;19982;-80
2022/06/16 02:48:07;;;;;;;;;;;;;;;16.62;34.34;95630.22;5048607;28;19999;-80
2022/06/16 02:50:37;;;;;;;;;;;;;;;16.85;33.83;95630.69;5066625;28;19975;-80
2022/06/16 02:53:26;;;;;;;;;;;;;;;16.75;34.80;95640.06;5047814;28;19972;-80
2022/06/16 02:55:52;;;;;;;;;;;;;;;16.86;34.13;95637.75;5036206;28;19968;-80
2022/06/16 02:58:17;;;;;;;;;;;;;;;17.01;34.08;95646.31;5048007;28;20058;-80
2022/06/16 03:00:46;;;;;;;;;;;;;;;16.84;34.35;95647.88;5027372;28;19971;-80
2022/06/16 03:03:16;;;;;;;;;;;;;;;16.09;36.26;95655.47;5063349;28;19960;-79
2022/06/16 03:05:41;;;;;;;;;;;;;;;15.44;38.02;95659.72;5065449;28;20008;-81
2022/06/16 03:08:06;;;;;;;;;;;;;;;15.67;37.40;95658.50;5065323;28;20017;-81
2022/06/16 03:13:16;;;;;;;;;;;;;;;15.09;38.86;95663.44;5065288;28;20031;-79
2022/06/16 03:15:41;;;;;;;;;;;;;;;15.27;38.18;95653.97;5034752;28;20021;-80
2022/06/16 03:18:06;;;;;;;;;;;;;;;15.87;36.80;95647.69;5065713;28;20067;-80
2022/06/16 03:20:32;;;;;;;;;;;;;;;16.32;35.84;95651.47;5046583;28;19966;-80
2022/06/16 03:22:57;;;;;;;;;;;;;;;16.53;35.47;95650.34;5027292;28;19952;-80
2022/06/16 03:25:22;;;;;;;;;;;;;;;16.29;36.16;95652.72;5058950;28;20063;-80
2022/06/16 03:27:47;;;;;;;;;;;;;;;16.42;35.86;95651.84;5047643;28;20329;-80
2022/06/16 03:30:13;;;;;;;;;;;;;;;16.57;35.42;95653.41;5065047;28;19974;-79
2022/06/16 03:32:38;;;;;;;;;;;;;;;16.70;35.15;95656.03;5046635;28;19960;-73
2022/06/16 03:35:03;;;;;;;;;;;;;;;16.77;34.88;95659.47;5064697;28;20061;-76
2022/06/16 03:37:28;;;;;;;;;;;;;;;16.64;35.39;95652.34;5064069;28;19980;-72
2022/06/16 03:39:54;;;;;;;;;;;;;;;16.62;35.31;95653.56;5064454;28;19955;-76
2022/06/16 03:42:19;;;;;;;;;;;;;;;16.63;35.29;95669.50;5063804;28;19975;-76
2022/06/16 03:44:44;;;;;;;;;;;;;;;16.57;35.44;95662.31;5063623;28;20041;-76
2022/06/16 03:47:09;;;;;;;;;;;;;;;16.59;35.19;95672.84;5064192;28;20474;-77
2022/06/16 03:49:35;;;;;;;;;;;;;;;16.17;36.34;95676.72;5062461;28;20363;-78
2022/06/16 03:52:00;;;;;;;;;;;;;;;15.19;38.36;95682.63;5045841;28;19953;-78
2022/06/16 03:54:25;;;;;;;;;;;;;;;15.11;38.80;95680.16;5045568;28;20139;-79
2022/06/16 03:56:50;;;;;;;;;;;;;;;15.12;38.86;95679.13;5045258;28;20020;-80
2022/06/16 03:59:21;;;;;;;;;;;;;;;14.89;39.55;95680.34;5064051;28;19964;-79
2022/06/16 04:01:46;;;;;;;;;;;;;;;14.62;40.27;95679.44;5040924;28;19973;-80
2022/06/16 04:04:11;;;;;;;;;;;;;;;15.10;39.06;95676.63;5064479;28;19953;-80
2022/06/16 04:06:37;;;;;;;;;;;;;;;15.10;39.05;95678.50;5045829;28;19982;-79
2022/06/16 04:09:02;;;;;;;;;;;;;;;15.67;37.62;95670.03;5063832;28;20052;-80
2022/06/16 04:11:28;;;;;;;;;;;;;;;16.09;36.67;95675.09;5046075;28;19950;-80
2022/06/16 04:14:13;;;;;;;;;;;;;;;16.29;37.56;95673.38;5063590;28;20025;-80
2022/06/16 04:16:39;;;;;;;;;;;;;;;16.49;37.01;95668.75;5045119;28;19971;-80
2022/06/16 04:19:05;;;;;;;;;;;;;;;16.62;37.33;95683.16;5030293;28;19948;-78
2022/06/16 04:21:30;;;;;;;;;;;;;;;16.77;36.25;95677.50;5029162;28;19981;-80
2022/06/16 04:23:55;;;;;;;;;;;;;;;16.95;35.94;95674.06;5028551;28;20003;-80
2022/06/16 04:26:21;;;;;;;;;;;;;;;17.10;36.49;95678.31;5029775;28;20175;-79
2022/06/16 04:28:46;;;;;;;;;;;;;;;17.18;36.65;95677.22;5029473;28;20389;-79
2022/06/16 04:31:11;;;;;;;;;;;;;;;17.23;36.90;95680.91;5035389;28;20268;-80
2022/06/16 04:33:37;;;;;;;;;;;;;;;17.06;37.30;95691.34;5046414;28;19973;-80
2022/06/16 04:36:02;;;;;;;;;;;;;;;17.15;36.84;95681.19;5064214;28;20446;-80
2022/06/16 04:38:27;;;;;;;;;;;;;;;17.23;36.07;95693.56;5046144;28;19970;-80
2022/06/16 04:40:53;;;;;;;;;;;;;;;17.19;36.25;95693.16;5064122;28;19970;-79
2022/06/16 04:43:18;;;;;;;;;;;;;;;17.27;36.34;95689.38;5046379;28;19944;-80
2022/06/16 04:45:43;;;;;;;;;;;;;;;17.49;35.95;95695.19;5046180;28;20381;-80
2022/06/16 04:48:09;;;;;;;;;;;;;;;17.51;35.45;95690.41;5064564;28;20354;-79
2022/06/16 04:50:34;;;;;;;;;;;;;;;17.60;35.00;95699.03;5046577;28;19966;-79
2022/06/16 04:52:59;;;;;;;;;;;;;;;17.83;34.64;95708.34;5046335;28;19984;-79
2022/06/16 04:55:25;;;;;;;;;;;;;;;17.95;34.12;95708.44;5046332;28;20021;-79
2022/06/16 04:57:51;;;;;;;;;;;;;;;18.11;33.67;95701.66;5029533;28;19971;-80
2022/06/16 05:00:16;;;;;;;;;;;;;;;18.12;33.30;95705.19;5064188;28;20460;-79
2022/06/16 05:02:41;;;;;;;;;;;;;;;18.25;33.34;95699.63;5079246;28;19981;-80
2022/06/16 05:05:07;;;;;;;;;;;;;;;18.37;33.33;95705.09;5063286;28;19968;-80
2022/06/16 05:07:32;;;;;;;;;;;;;;;18.38;33.10;95704.03;5046099;28;19951;-80
2022/06/16 05:09:57;;;;;;;;;;;;;;;18.37;33.02;95705.09;5045386;28;19967;-80
2022/06/16 05:12:22;;;;;;;;;;;;;;;18.39;33.14;95703.00;5063333;28;19941;-79
2022/06/16 05:14:48;;;;;;;;;;;;;;;18.49;33.23;95715.94;5045590;28;19958;-79
2022/06/16 05:17:13;;;;;;;;;;;;;;;18.56;33.41;95716.66;5033311;28;19964;-80
2022/06/16 05:19:38;;;;;;;;;;;;;;;18.53;32.86;95719.00;5045081;28;19952;-80
2022/06/16 05:22:05;;;;;;;;;;;;;;;18.40;33.41;95723.53;5045231;28;20063;-79
2022/06/16 05:24:30;;;;;;;;;;;;;;;18.53;33.14;95727.09;5061227;28;20002;-73
2022/06/16 05:26:55;;;;;;;;;;;;;;;18.34;34.01;95731.66;5062246;28;19947;-78
2022/06/16 05:29:21;;;;;;;;;;;;;;;18.46;32.82;95734.44;5038147;28;20364;-79
2022/06/16 05:31:46;;;;;;;;;;;;;;;18.33;33.74;95735.41;5062185;28;19950;-79
2022/06/16 05:34:12;;;;;;;;;;;;;;;18.20;34.34;95739.91;5043615;28;20458;-79
2022/06/16 05:36:37;;;;;;;;;;;;;;;17.78;34.49;95748.59;5027135;28;20086;-79
2022/06/16 05:39:02;;;;;;;;;;;;;;;17.82;35.31;95748.94;5027501;28;19985;-79
2022/06/16 05:41:27;;;;;;;;;;;;;;;17.58;35.28;95754.97;5061812;28;19967;-79
2022/06/16 05:43:53;;;;;;;;;;;;;;;16.98;36.21;95754.31;5044301;28;19947;-79
2022/06/16 05:46:18;;;;;;;;;;;;;;;16.75;36.23;95755.66;5061951;28;20034;-79
2022/06/16 05:48:44;;;;;;;;;;;;;;;16.90;36.50;95754.56;5043729;28;19983;-78
2022/06/16 05:51:10;;;;;;;;;;;;;;;16.77;36.58;95750.06;5027522;28;20022;-78
2022/06/16 05:53:35;;;;;;;;;;;;;;;16.88;36.98;95757.47;5061954;28;20116;-79
2022/06/16 05:56:01;;;;;;;;;;;;;;;16.82;37.37;95760.19;5027289;28;20414;-79
2022/06/16 05:58:26;;;;;;;;;;;;;;;16.72;37.23;95761.47;5043761;28;20279;-79
2022/06/16 06:00:51;;;;;;;;;;;;;;;16.60;37.27;95771.22;5043603;28;19975;-75
2022/06/16 06:03:16;;;;;;;;;;;;;;;16.67;36.86;95766.66;5061951;28;19955;-79
2022/06/16 06:05:42;;;;;;;;;;;;;;;16.71;37.18;95773.25;5043665;28;19980;-79
2022/06/16 06:16:25;;;;;;;;;;;;;;;16.67;36.51;95782.78;5045945;28;20390;-79
2022/06/16 06:18:51;;;;;;;;;;;;;;;16.61;37.84;95794.38;5062027;28;20058;-78
2022/06/16 06:21:16;;;;;;;;;;;;;;;16.25;37.82;95794.66;5043323;28;20283;-78
2022/06/16 06:23:42;;;;;;;;;;;;;;;16.34;38.21;95789.88;5043754;28;19956;-74
2022/06/16 06:26:08;;;;;;;;;;;;;;;16.57;36.84;95798.53;5061457;28;20048;-75
2022/06/16 06:28:34;;;;;;;;;;;;;;;16.39;37.52;95800.03;5061150;28;20001;-73
2022/06/16 06:30:59;;;;;;;;;;;;;;;15.79;39.57;95803.59;5061830;28;20648;-79
2022/06/16 06:33:24;;;;;;;;;;;;;;;15.94;39.69;95812.25;5043168;28;19994;-79
2022/06/16 06:35:49;;;;;;;;;;;;;;;16.80;37.93;95808.78;5043262;28;19988;-80
2022/06/16 06:38:15;;;;;;;;;;;;;;;16.39;38.40;95818.84;5026648;28;20428;-78
2022/06/16 06:40:40;;;;;;;;;;;;;;;15.59;40.70;95826.72;5026159;28;20434;-78
2022/06/16 06:43:05;;;;;;;;;;;;;;;16.18;38.37;95823.38;5026953;28;20324;-79
2022/06/16 06:45:31;;;;;;;;;;;;;;;15.59;38.97;95820.50;5026359;28;20308;-79
2022/06/16 06:47:56;;;;;;;;;;;;;;;15.76;38.87;95820.94;5043362;28;20051;-79
2022/06/16 06:50:25;;;;;;;;;;;;;;;16.11;37.91;95828.78;5043155;28;19979;-80
2022/06/16 06:52:51;;;;;;;;;;;;;;;16.85;36.43;95817.03;5042797;28;20448;-79
2022/06/16 06:55:16;;;;;;;;;;;;;;;17.18;35.79;95826.00;5043173;28;20005;-79
2022/06/16 06:57:42;;;;;;;;;;;;;;;17.68;35.19;95824.47;5043131;28;20338;-77
2022/06/16 07:00:07;;;;;;;;;;;;;;;16.85;35.89;95821.56;5023354;28;19951;-79
2022/06/16 07:02:32;;;;;;;;;;;;;;;17.56;35.01;95818.09;5043347;28;19997;-79
2022/06/16 07:04:58;;;;;;;;;;;;;;;17.30;35.32;95817.25;5042855;28;20564;-79
2022/06/16 07:07:23;;;;;;;;;;;;;;;17.76;34.48;95824.19;5026753;28;20263;-79
2022/06/16 07:09:49;;;;;;;;;;;;;;;17.74;35.46;95828.94;5060949;28;19966;-78
2022/06/16 07:12:14;;;;;;;;;;;;;;;17.28;35.85;95831.72;5043114;28;19938;-79
2022/06/16 07:14:43;;;;;;;;;;;;;;;17.16;36.50;95836.16;5026147;28;20009;-79
2022/06/16 07:17:08;;;;;;;;;;;;;;;17.22;35.41;95845.22;5026372;28;19961;-78
2022/06/16 07:19:35;;;;;;;;;;;;;;;17.92;34.15;95841.69;5042999;28;19955;-80
2022/06/16 07:22:01;;;;;;;;;;;;;;;17.13;35.58;95844.63;5043108;28;20055;-78
2022/06/16 07:24:26;;;;;;;;;;;;;;;17.65;34.38;95854.50;5045748;28;20064;-74
2022/06/16 07:26:51;;;;;;;;;;;;;;;17.89;33.84;95857.47;5047351;28;20209;-79
2022/06/16 07:29:16;;;;;;;;;;;;;;;17.24;34.86;95853.91;5046511;28;19954;-79
2022/06/16 07:31:42;;;;;;;;;;;;;;;17.34;35.46;95865.03;5046493;28;19947;-79
2022/06/16 07:34:07;;;;;;;;;;;;;;;17.98;34.11;95861.53;5046373;28;19961;-79
2022/06/16 07:36:32;;;;;;;;;;;;;;;18.53;33.63;95864.56;5064116;28;19971;-79
2022/06/16 07:38:57;;;;;;;;;;;;;;;17.12;35.57;95862.66;5047366;28;20326;-79
2022/06/16 07:41:32;;;;;;;;;;;;;;;18.18;33.94;95866.75;5029544;28;20006;-79
2022/06/16 07:44:08;;;;;;;;;;;;;;;18.00;34.17;95869.38;5031481;28;20579;-79
2022/06/16 07:46:33;;;;;;;;;;;;;;;18.34;34.69;95869.94;5045875;28;19971;-80
2022/06/16 07:48:58;;;;;;;;;;;;;;;17.99;34.52;95879.34;5046086;28;19958;-80
2022/06/16 07:51:24;;;;;;;;;;;;;;;17.89;35.20;95879.00;5046396;28;19930;-81
2022/06/16 07:53:49;;;;;;;;;;;;;;;19.23;32.48;95873.34;5045926;28;19972;-80
2022/06/16 07:56:14;;;;;;;;;;;;;;;19.40;33.04;95876.25;5046209;28;20051;-79
2022/06/16 07:58:40;;;;;;;;;;;;;;;18.72;33.20;95888.84;5064700;28;19972;-79
2022/06/16 08:01:07;;;;;;;;;;;;;;;18.52;33.61;95892.56;5072042;28;20140;-79
2022/06/16 08:03:32;;;;;;;;;;;;;;;18.74;32.07;95892.16;5027102;28;19944;-80
2022/06/16 08:05:58;;;;;;;;;;;;;;;17.66;34.40;95889.28;5045834;28;19965;-80
2022/06/16 08:08:23;;;;;;;;;;;;;;;17.96;34.12;95890.56;5029878;28;19938;-79
2022/06/16 08:10:52;;;;;;;;;;;;;;;18.68;33.05;95888.50;5046091;28;19931;-80
2022/06/16 08:13:18;;;;;;;;;;;;;;;19.39;31.97;95895.38;5064171;28;20063;-79
2022/06/16 08:15:45;;;;;;;;;;;;;;;19.67;31.99;95892.09;5080798;28;20647;-75
2022/06/16 08:18:12;;;;;;;;;;;;;;;19.87;32.41;95888.25;5066278;28;19969;-77
2022/06/16 08:20:37;;;;;;;;;;;;;;;19.67;32.58;95894.78;5028451;28;19985;-79
2022/06/16 08:23:02;;;;;;;;;;;;;;;19.83;30.32;95900.59;5045419;28;20422;-79
2022/06/16 08:25:28;;;;;;;;;;;;;;;20.30;30.81;95894.47;5063159;28;19950;-79
2022/06/16 08:27:55;;;;;;;;;;;;;;;19.96;30.25;95883.38;5045857;28;20392;-79
2022/06/16 08:30:20;;;;;;;;;;;;;;;19.02;31.15;95891.66;5026506;28;19961;-79
2022/06/16 08:32:46;;;;;;;;;;;;;;;19.12;31.98;95893.81;5063401;28;20163;-79
2022/06/16 08:35:11;;;;;;;;;;;;;;;20.18;31.81;95893.63;5062825;28;20484;-79
2022/06/16 08:37:36;;;;;;;;;;;;;;;20.18;31.40;95893.63;5044922;28;20255;-80
2022/06/16 08:40:02;;;;;;;;;;;;;;;20.60;31.07;95906.25;5045319;28;20007;-79
2022/06/16 08:42:34;;;;;;;;;;;;;;;20.60;30.36;95898.94;5028498;28;20470;-79
2022/06/16 08:45:00;;;;;;;;;;;;;;;20.74;31.80;95898.72;5028237;28;19952;-79
2022/06/16 08:47:30;;;;;;;;;;;;;;;20.68;30.74;95903.19;5045465;28;19958;-80
2022/06/16 08:50:11;;;;;;;;;;;;;;;20.16;30.94;95903.84;5044799;28;20475;-79
2022/06/16 08:52:45;;;;;;;;;;;;;;;19.77;32.35;95915.00;5044743;28;19945;-79
2022/06/16 08:55:12;;;;;;;;;;;;;;;19.95;31.74;95906.84;5063211;28;19963;-78
2022/06/16 08:57:42;;;;;;;;;;;;;;;19.58;30.31;95913.19;5028133;28;19999;-78
2022/06/16 09:00:07;;;;;;;;;;;;;;;19.58;31.00;95904.28;5063193;28;19950;-78
2022/06/16 09:02:40;;;;;;;;;;;;;;;19.46;31.76;95905.03;5062255;28;20013;-78
2022/06/16 09:05:15;;;;;;;;;;;;;;;20.00;31.09;95918.84;5062302;28;20079;-78
2022/06/16 09:07:59;;;;;;;;;;;;;;;20.12;29.48;95927.00;5044767;28;19945;-78
2022/06/16 09:10:28;;;;;;;;;;;;;;;19.89;29.94;95923.16;5062237;28;20159;-78
2022/06/16 09:13:11;;;;;;;;;;;;;;;19.79;29.76;95926.41;5062161;28;19968;-78
2022/06/16 09:15:55;;;;;;;;;;;;;;;19.71;29.22;95930.25;5062601;28;19961;-79
2022/06/16 09:18:29;;;;;;;;;;;;;;;20.76;29.38;95923.66;5077770;28;20238;-78
2022/06/16 09:21:04;;;;;;;;;;;;;;;20.81;27.57;95931.06;5043512;28;20758;-78
2022/06/16 09:23:52;;;;;;;;;;;;;;;20.36;29.50;95922.44;5027870;28;20409;-78
2022/06/16 09:26:24;;;;;;;;;;;;;;;20.61;29.17;95932.22;5062100;28;20380;-79
2022/06/16 09:28:52;;;;;;;;;;;;;;;20.93;28.25;95922.91;5044144;28;20061;-79
2022/06/16 09:31:30;;;;;;;;;;;;;;;19.72;28.58;95918.41;5044473;28;20392;-79
2022/06/16 09:33:58;;;;;;;;;;;;;;;18.99;28.42;95918.22;5027689;28;19966;-79
2022/06/16 09:36:36;;;;;;;;;;;;;;;19.06;30.63;95929.78;5043983;28;19976;-79
2022/06/16 09:39:04;;;;;;;;;;;;;;;19.09;28.40;95937.44;5044347;28;19971;-78
2022/06/16 09:44:20;;;;;;;;;;;;;;;18.95;28.23;95934.91;5047282;28;19954;-79
2022/06/16 09:46:47;;;;;;;;;;;;;;;18.93;23.23;95944.22;5043146;28;19998;-79
2022/06/16 09:49:32;;;;;;;;;;;;;;;19.08;26.45;95949.28;5027363;28;19971;-79
2022/06/16 09:51:59;;;;;;;;;;;;;;;19.43;26.42;95958.66;5062184;28;20000;-79
2022/06/16 09:54:26;;;;;;;;;;;;;;;19.95;23.60;95957.31;5044043;28;19980;-80
2022/06/16 09:56:54;;;;;;;;;;;;;;;19.45;26.41;95957.38;5061729;28;20457;-79
2022/06/16 09:59:27;;;;;;;;;;;;;;;19.47;26.63;95962.53;5044625;28;19943;-79
2022/06/16 10:01:55;;;;;;;;;;;;;;;19.30;22.38;95967.72;5043835;28;20014;-79
2022/06/16 10:04:20;;;;;;;;;;;;;;;19.01;22.66;95970.94;5062581;28;19942;-79
2022/06/16 10:06:51;;;;;;;;;;;;;;;19.12;25.66;95973.94;5043646;28;19979;-80
2022/06/16 10:09:18;;;;;;;;;;;;;;;19.63;23.41;95969.19;5061671;28;20103;-79
2022/06/16 10:11:49;;;;;;;;;;;;;;;19.12;23.92;95987.41;5062180;28;19942;-79
2022/06/16 10:14:21;;;;;;;;;;;;;;;19.93;27.95;95983.75;5027466;28;20485;-79
2022/06/16 10:16:49;;;;;;;;;;;;;;;20.02;28.13;95990.50;5027605;28;19968;-80
2022/06/16 10:19:15;;;;;;;;;;;;;;;20.45;26.21;95994.03;5044428;28;19936;-79
2022/06/16 10:21:40;;;;;;;;;;;;;;;20.46;25.31;95992.13;5061809;28;20272;-79
2022/06/16 10:24:05;;;;;;;;;;;;;;;20.35;25.26;95994.63;5043807;28;19946;-79
2022/06/16 10:26:31;;;;;;;;;;;;;;;20.36;27.91;96007.06;5027280;28;19998;-79
2022/06/16 10:29:00;;;;;;;;;;;;;;;20.54;27.75;96008.06;5043590;28;20013;-79
2022/06/16 10:31:38;;;;;;;;;;;;;;;20.42;28.61;96010.72;5061810;28;19982;-79
2022/06/16 10:34:04;;;;;;;;;;;;;;;21.09;27.12;96018.81;5059185;28;19958;-79
2022/06/16 10:36:30;;;;;;;;;;;;;;;20.32;26.03;96019.41;5026808;28;20123;-80
2022/06/16 10:39:14;;;;;;;;;;;;;;;20.75;25.93;96019.38;5044273;28;20026;-79
2022/06/16 10:42:03;;;;;;;;;;;;;;;20.60;27.71;96017.13;5077128;28;20157;-75
2022/06/16 10:44:28;;;;;;;;;;;;;;;20.61;26.26;96029.56;5052866;28;20040;-78
2022/06/16 10:46:58;;;;;;;;;;;;;;;20.13;27.67;96029.47;5043669;28;20022;-78
2022/06/16 10:49:25;;;;;;;;;;;;;;;20.68;27.01;96045.72;5043420;28;19959;-78
2022/06/16 10:51:56;;;;;;;;;;;;;;;21.08;27.89;96033.41;5027161;28;19980;-79
2022/06/16 10:54:28;;;;;;;;;;;;;;;21.08;27.52;96041.53;5043216;28;19961;-78
2022/06/16 10:57:06;;;;;;;;;;;;;;;20.44;26.79;96046.47;5061349;28;20416;-79
2022/06/16 10:59:31;;;;;;;;;;;;;;;20.68;27.62;96037.59;5030496;28;20384;-79
2022/06/16 11:02:01;;;;;;;;;;;;;;;20.77;27.44;96033.50;5030188;28;19979;-79
2022/06/16 11:04:38;;;;;;;;;;;;;;;20.74;26.95;96050.22;5047644;28;19938;-79
2022/06/16 11:07:03;;;;;;;;;;;;;;;20.30;27.35;96039.63;5030412;28;20002;-79
2022/06/16 11:09:30;;;;;;;;;;;;;;;20.93;26.86;96041.97;5046874;28;20042;-79
2022/06/16 11:11:56;;;;;;;;;;;;;;;20.59;26.64;96043.31;5047870;28;19949;-79
2022/06/16 11:14:40;;;;;;;;;;;;;;;21.25;27.41;96045.16;5046999;28;20446;-79
2022/06/16 11:17:17;;;;;;;;;;;;;;;21.15;25.33;96044.09;5065323;28;19964;-79
2022/06/16 11:19:53;;;;;;;;;;;;;;;21.86;23.68;96041.28;5044331;28;19999;-80
2022/06/16 11:22:31;;;;;;;;;;;;;;;21.94;25.13;96037.41;5046526;28;19965;-79
2022/06/16 11:25:11;;;;;;;;;;;;;;;21.88;25.79;96031.03;5064533;28;20414;-78
2022/06/16 11:27:40;;;;;;;;;;;;;;;21.99;25.16;96031.28;5064834;28;19972;-79
2022/06/16 11:30:26;;;;;;;;;;;;;;;22.56;23.80;96026.88;5037671;28;20471;-78
2022/06/16 11:32:51;;;;;;;;;;;;;;;22.37;22.80;96034.41;5067118;28;19957;-80
2022/06/16 11:35:17;;;;;;;;;;;;;;;22.63;24.00;96024.81;5046319;28;19959;-79
2022/06/16 11:37:42;;;;;;;;;;;;;;;22.38;23.13;96034.16;5063579;28;20161;-79
2022/06/16 11:40:23;;;;;;;;;;;;;;;21.16;24.52;96046.56;5046625;28;20373;-78
2022/06/16 11:42:57;;;;;;;;;;;;;;;21.29;24.54;96032.00;5029599;28;19999;-79
2022/06/16 11:45:37;;;;;;;;;;;;;;;21.89;24.50;96031.88;5045990;28;20065;-79
2022/06/16 11:48:21;;;;;;;;;;;;;;;21.24;23.25;96026.44;5046568;28;20495;-79
2022/06/16 11:51:08;;;;;;;;;;;;;;;22.72;20.97;96029.84;5064125;28;20361;-79
2022/06/16 11:53:34;;;;;;;;;;;;;;;22.64;21.04;96029.19;5045929;28;20745;-79
2022/06/16 11:56:05;;;;;;;;;;;;;;;22.53;24.30;96030.06;5064313;28;19945;-80
2022/06/16 11:58:44;;;;;;;;;;;;;;;22.44;21.96;96023.38;5064185;28;20462;-79
2022/06/16 12:01:09;;;;;;;;;;;;;;;23.35;22.37;96026.19;5045683;28;19960;-79
2022/06/16 12:03:37;;;;;;;;;;;;;;;23.59;18.98;96032.19;5064162;28;19913;-79
2022/06/16 12:06:06;;;;;;;;;;;;;;;23.35;21.32;96035.13;5063299;28;19964;-78
2022/06/16 12:09:00;;;;;;;;;;;;;;;23.34;18.95;96032.66;5063637;28;19951;-78
2022/06/16 12:11:31;;;;;;;;;;;;;;;23.64;22.65;96032.25;5049525;28;20115;-79
2022/06/16 12:14:00;;;;;;;;;;;;;;;23.90;20.49;96021.72;5063378;28;19923;-79
2022/06/16 12:16:36;;;;;;;;;;;;;;;23.42;21.81;96027.63;5045613;28;20400;-79
2022/06/16 12:19:04;;;;;;;;;;;;;;;23.77;18.59;96046.56;5045212;28;19978;-78
2022/06/16 12:21:29;;;;;;;;;;;;;;;23.77;21.33;96046.56;5078790;28;19951;-78
2022/06/16 12:24:10;;;;;;;;;;;;;;;23.87;18.78;96054.88;5063497;28;20341;-79
2022/06/16 12:26:51;;;;;;;;;;;;;;;24.00;18.90;96061.78;5045211;28;19979;-78
2022/06/16 12:29:19;;;;;;;;;;;;;;;24.19;18.27;96059.56;5045635;28;19946;-78
2022/06/16 12:31:52;;;;;;;;;;;;;;;24.22;21.09;96051.94;5063455;28;20356;-79
2022/06/16 12:34:29;;;;;;;;;;;;;;;24.91;19.69;96052.38;5045253;28;20380;-80
2022/06/16 12:36:55;;;;;;;;;;;;;;;23.19;21.06;96044.97;5028030;28;19936;-79
2022/06/16 12:39:32;;;;;;;;;;;;;;;24.67;20.68;96036.34;5028710;28;19912;-80
2022/06/16 12:42:04;;;;;;;;;;;;;;;24.98;16.99;96031.16;5045063;28;20007;-79
2022/06/16 12:44:37;;;;;;;;;;;;;;;23.20;18.11;96030.31;5045102;28;20496;-79
2022/06/16 12:47:03;;;;;;;;;;;;;;;23.68;18.63;96038.84;5028359;28;20341;-78
2022/06/16 12:49:29;;;;;;;;;;;;;;;24.97;18.95;96043.16;5062805;28;20076;-79
2022/06/16 12:51:55;;;;;;;;;;;;;;;25.80;19.14;96045.53;5028831;28;20416;-80
2022/06/16 12:54:23;;;;;;;;;;;;;;;25.92;16.67;96048.84;5028931;28;19923;-80
2022/06/16 12:57:08;;;;;;;;;;;;;;;25.63;18.68;96046.56;5045011;28;19928;-78
2022/06/16 12:59:33;;;;;;;;;;;;;;;25.02;19.26;96056.00;5044779;28;19956;-80
2022/06/16 13:01:59;;;;;;;;;;;;;;;25.26;20.19;96050.97;5063151;28;19994;-79
2022/06/16 13:04:25;;;;;;;;;;;;;;;25.40;20.48;96054.06;5045540;28;20355;-78
2022/06/16 13:06:50;;;;;;;;;;;;;;;25.47;19.06;96054.69;5028329;28;19908;-79
2022/06/16 13:09:16;;;;;;;;;;;;;;;25.66;20.61;96037.84;5045470;28;19916;-80
2022/06/16 13:12:01;;;;;;;;;;;;;;;25.25;17.57;96040.34;5029890;28;19965;-80
2022/06/16 13:14:30;;;;;;;;;;;;;;;25.02;19.76;96026.84;5063937;28;20378;-80